Bedford, New Hampshire
Current Conditions -  °F | °C
As of 9:53 AM on Monday 24 Nov 2014 (Local Time) from KMHT Reporting Station
Light Rain Light Rain  
Wind Chill: 59°   Ceiling: 800
Heat Index: 59°   Visibility: 2mi
Dew Point: 57°   Wind: 16mph
Humidity: 93%   Direction: 170°S
Pressure: 29.68"   Gusts: 22mph
Location:  42.96°N, 71.49°W
Report Text: KMHT 241453Z 17014G19KT 2SM -RA BR BKN008 OVC013 15/14 A2968 RMK AO2 SLP063 P0008 60020 T01500139 56049
Loading
Personal Weather Stations






























Interactive Weather Map New forecast layout! Learn more

10-Day Weather Forecast

Advertisements
Track Severe Weather on mobile